Time;durP1;ratioP1;P1;durP2;ratioP2;P2;SDS_P1;SDS_P2;PMS_P1;PMS_P2;Temp;Humidity;BMP_temperature;BMP_pressure;BME280_temperature;BME280_humidity;BME280_pressure;Samples;Min_cycle;Max_cycle;Signal;HPM_P1;HPM_P2
2022/06/01 00:00:54;;;;;;;2.53;1.88;;;20.50;99.90;;;;;;4243554;27;20614;-75
2022/06/01 00:02:57;;;;;;;2.47;1.98;;;20.40;99.90;;;;;;4242791;27;20262;-75
2022/06/01 00:04:59;;;;;;;2.92;2.03;;;20.50;99.90;;;;;;4240336;27;20628;-75
2022/06/01 00:07:01;;;;;;;3.15;2.10;;;20.50;99.90;;;;;;4243151;27;20289;-74
2022/06/01 00:09:04;;;;;;;3.53;1.80;;;20.50;99.90;;;;;;4242808;27;20225;-74
2022/06/01 00:11:08;;;;;;;2.88;1.85;;;20.50;99.90;;;;;;4240913;27;20865;-74
2022/06/01 00:13:11;;;;;;;2.75;1.80;;;20.40;99.90;;;;;;4241223;27;20261;-74
2022/06/01 00:15:15;;;;;;;2.72;1.70;;;20.40;99.90;;;;;;4242460;27;20274;-74
2022/06/01 00:17:20;;;;;;;2.40;1.80;;;20.40;99.90;;;;;;4242581;27;20217;-74
2022/06/01 00:19:24;;;;;;;3.17;1.98;;;20.40;99.90;;;;;;4242483;27;20266;-74
2022/06/01 00:21:27;;;;;;;3.45;2.03;;;20.40;99.90;;;;;;4241195;27;20228;-74
2022/06/01 00:23:29;;;;;;;2.67;2.00;;;20.50;99.90;;;;;;4242434;27;20216;-74
2022/06/01 00:25:31;;;;;;;2.70;1.98;;;20.40;99.90;;;;;;4242775;27;20259;-74
2022/06/01 00:27:36;;;;;;;2.20;1.85;;;20.40;99.90;;;;;;4239744;27;20217;-74
2022/06/01 00:29:39;;;;;;;2.30;2.08;;;20.40;99.90;;;;;;4242343;27;20221;-75
2022/06/01 00:31:41;;;;;;;2.50;2.00;;;20.40;99.90;;;;;;4242591;27;20217;-75
2022/06/01 00:33:43;;;;;;;2.58;2.03;;;20.40;99.90;;;;;;4242518;27;20221;-75
2022/06/01 00:35:46;;;;;;;2.83;1.60;;;20.40;99.90;;;;;;4240432;27;20241;-75
2022/06/01 00:37:49;;;;;;;2.22;1.85;;;20.40;99.90;;;;;;4240679;27;20217;-74
2022/06/01 00:39:53;;;;;;;3.05;1.90;;;20.40;99.90;;;;;;4241296;27;20617;-74
2022/06/01 00:41:56;;;;;;;2.05;1.85;;;20.40;99.90;;;;;;4242632;27;20278;-74
2022/06/01 00:44:00;;;;;;;2.95;2.08;;;20.40;99.90;;;;;;4241109;27;20221;-75
2022/06/01 00:46:02;;;;;;;2.35;2.03;;;20.40;99.90;;;;;;4241242;27;20217;-75
2022/06/01 00:48:05;;;;;;;3.25;2.20;;;20.40;99.90;;;;;;4241310;27;20225;-75
2022/06/01 00:50:11;;;;;;;2.45;1.90;;;20.40;99.90;;;;;;4242257;27;20213;-74
2022/06/01 00:52:14;;;;;;;3.33;2.15;;;20.40;99.90;;;;;;4241424;27;20209;-74
2022/06/01 00:54:16;;;;;;;2.35;2.03;;;20.30;99.90;;;;;;4242357;27;20615;-74
2022/06/01 00:56:22;;;;;;;2.47;2.05;;;20.40;99.90;;;;;;4239019;27;20229;-74
2022/06/01 00:58:30;;;;;;;3.92;1.80;;;20.40;99.90;;;;;;4242613;27;20470;-74
2022/06/01 01:00:38;;;;;;;2.65;1.95;;;20.40;99.90;;;;;;4242153;27;20224;-74
2022/06/01 01:02:41;;;;;;;2.83;1.92;;;20.30;99.90;;;;;;4239771;27;20269;-75
2022/06/01 01:04:44;;;;;;;3.15;1.83;;;20.30;99.90;;;;;;4242330;27;20209;-75
2022/06/01 01:06:46;;;;;;;1.98;1.70;;;20.40;99.90;;;;;;4241921;27;20281;-75
2022/06/01 01:08:49;;;;;;;1.98;1.55;;;20.30;99.90;;;;;;4242326;27;20264;-75
2022/06/01 01:10:51;;;;;;;2.80;2.00;;;20.30;99.90;;;;;;4240315;27;20270;-75
2022/06/01 01:12:59;;;;;;;3.92;1.85;;;20.30;99.90;;;;;;4241117;27;20209;-74
2022/06/01 01:15:02;;;;;;;2.40;1.70;;;20.30;99.90;;;;;;4241864;27;20211;-75
2022/06/01 01:17:07;;;;;;;2.53;2.20;;;20.30;99.90;;;;;;4242155;27;20240;-75
2022/06/01 01:19:18;;;;;;;2.90;1.75;;;20.30;99.90;;;;;;4240512;27;20213;-75
2022/06/01 01:21:27;;;;;;;2.53;1.77;;;20.30;99.90;;;;;;4241134;27;20204;-75
2022/06/01 01:23:38;;;;;;;2.53;1.73;;;20.30;99.90;;;;;;4242368;27;20253;-75
2022/06/01 01:25:42;;;;;;;2.33;1.80;;;20.30;99.90;;;;;;4242352;27;20660;-75
2022/06/01 01:27:45;;;;;;;1.98;1.80;;;20.30;99.90;;;;;;4227041;27;20261;-75
2022/06/01 01:29:47;;;;;;;2.40;1.88;;;20.30;99.90;;;;;;4241282;27;20258;-75
2022/06/01 01:31:50;;;;;;;3.10;1.73;;;20.30;99.90;;;;;;4241987;27;20221;-75
2022/06/01 01:33:56;;;;;;;2.45;1.98;;;20.30;99.90;;;;;;4241899;27;20291;-75
2022/06/01 01:36:01;;;;;;;2.60;1.92;;;20.30;99.90;;;;;;4238052;28;20251;-74
2022/06/01 01:38:09;;;;;;;3.22;2.00;;;20.30;99.90;;;;;;4241484;28;20595;-74
2022/06/01 01:40:12;;;;;;;2.80;2.15;;;20.20;99.90;;;;;;4241590;28;20208;-74
2022/06/01 01:42:16;;;;;;;3.03;1.92;;;20.30;99.90;;;;;;4241579;27;20217;-75
2022/06/01 01:44:21;;;;;;;2.47;1.80;;;20.30;99.90;;;;;;4242867;27;20209;-75
2022/06/01 01:46:24;;;;;;;2.45;2.00;;;20.20;99.90;;;;;;4243034;27;20205;-75
2022/06/01 01:48:26;;;;;;;2.95;2.00;;;20.20;99.90;;;;;;4243654;27;20262;-75
2022/06/01 01:50:29;;;;;;;2.25;1.73;;;20.20;99.90;;;;;;4241948;27;20213;-75
2022/06/01 01:52:31;;;;;;;3.63;2.53;;;20.20;99.90;;;;;;4242880;27;20221;-75
2022/06/01 01:54:45;;;;;;;2.85;1.77;;;20.30;99.90;;;;;;4243417;27;20213;-75
2022/06/01 01:57:22;;;;;;;2.17;1.75;;;20.20;99.90;;;;;;4244050;27;20232;-74
2022/06/01 01:59:37;;;;;;;3.00;1.88;;;20.20;99.90;;;;;;4243214;27;20273;-75
2022/06/01 02:01:48;;;;;;;3.72;1.67;;;20.20;99.90;;;;;;4243889;27;20265;-75
2022/06/01 02:03:58;;;;;;;2.00;1.80;;;20.20;99.90;;;;;;4242943;27;20231;-74
2022/06/01 02:06:08;;;;;;;1.95;1.75;;;20.20;99.90;;;;;;4243414;27;20388;-74
2022/06/01 02:08:22;;;;;;;3.13;1.70;;;20.20;99.90;;;;;;4242861;27;20250;-74
2022/06/01 02:12:46;;;;;;;3.00;1.98;;;20.20;99.90;;;;;;4242383;27;20205;-74
2022/06/01 02:14:54;;;;;;;2.03;1.52;;;20.20;99.90;;;;;;4243807;27;20213;-74
2022/06/01 02:17:01;;;;;;;4.93;2.05;;;20.20;99.90;;;;;;4243612;27;20240;-75
2022/06/01 02:19:09;;;;;;;2.17;1.77;;;20.20;99.90;;;;;;4243643;27;20729;-75
2022/06/01 02:21:16;;;;;;;2.28;1.60;;;20.20;99.90;;;;;;4241439;27;20297;-75
2022/06/01 02:23:19;;;;;;;2.92;1.70;;;20.20;99.90;;;;;;4243769;27;20225;-75
2022/06/01 02:25:21;;;;;;;2.40;1.83;;;20.20;99.90;;;;;;4243406;27;20217;-75
2022/06/01 02:27:25;;;;;;;3.92;2.10;;;20.10;99.90;;;;;;4240541;27;20221;-75
2022/06/01 02:29:35;;;;;;;2.35;1.80;;;20.10;99.90;;;;;;4242123;27;20250;-75
2022/06/01 02:31:39;;;;;;;2.00;1.67;;;20.10;99.90;;;;;;4243114;27;20209;-75
2022/06/01 02:33:43;;;;;;;1.65;1.55;;;20.10;99.90;;;;;;4243509;27;20213;-75
2022/06/01 02:35:58;;;;;;;3.15;1.90;;;20.10;99.90;;;;;;4243580;27;20217;-75
2022/06/01 02:38:03;;;;;;;2.70;2.03;;;20.10;99.90;;;;;;4240757;27;20244;-75
2022/06/01 02:40:09;;;;;;;2.42;1.88;;;20.10;99.90;;;;;;4242652;27;20213;-75
2022/06/01 02:42:29;;;;;;;2.00;1.70;;;20.10;99.90;;;;;;4242961;27;20220;-74
2022/06/01 02:44:33;;;;;;;2.50;1.80;;;20.10;99.90;;;;;;4241605;27;20221;-74
2022/06/01 02:46:36;;;;;;;2.58;1.73;;;20.10;99.90;;;;;;4242960;27;20209;-74
2022/06/01 02:48:43;;;;;;;2.67;1.42;;;20.10;99.90;;;;;;4244234;27;20270;-74
2022/06/01 02:50:45;;;;;;;2.08;1.67;;;20.10;99.90;;;;;;4244106;27;20209;-74
2022/06/01 02:52:48;;;;;;;2.08;1.60;;;20.10;99.90;;;;;;4244252;27;20220;-74
2022/06/01 02:54:51;;;;;;;2.83;1.60;;;20.10;99.90;;;;;;4241438;27;20689;-74
2022/06/01 02:56:54;;;;;;;1.63;1.52;;;20.10;99.90;;;;;;4243596;27;20241;-74
2022/06/01 02:58:56;;;;;;;3.42;1.77;;;20.10;99.90;;;;;;4243950;27;20225;-74
2022/06/01 03:01:01;;;;;;;2.38;1.73;;;20.10;99.90;;;;;;4241465;27;20212;-74
2022/06/01 03:03:05;;;;;;;2.85;1.58;;;20.10;99.90;;;;;;4243036;27;20285;-74
2022/06/01 03:05:08;;;;;;;1.63;1.48;;;20.10;99.90;;;;;;4243286;27;20221;-74
2022/06/01 03:07:10;;;;;;;1.95;1.70;;;20.10;99.90;;;;;;4242073;27;20229;-74
2022/06/01 03:09:12;;;;;;;2.40;1.85;;;20.10;99.90;;;;;;4242900;27;20261;-74
2022/06/01 03:11:15;;;;;;;2.90;1.67;;;20.10;99.90;;;;;;4243490;27;20225;-74
2022/06/01 03:13:17;;;;;;;2.08;1.70;;;20.10;99.90;;;;;;4241781;27;20270;-74
2022/06/01 03:15:21;;;;;;;1.85;1.65;;;20.10;99.90;;;;;;4243356;27;20213;-75
2022/06/01 03:17:25;;;;;;;2.28;1.80;;;20.10;99.90;;;;;;4241625;27;20233;-74
2022/06/01 03:19:27;;;;;;;1.83;1.55;;;20.10;99.90;;;;;;4242998;27;20232;-74
2022/06/01 03:21:30;;;;;;;2.78;1.50;;;20.10;99.90;;;;;;4241228;27;20213;-74
2022/06/01 03:23:32;;;;;;;2.03;1.55;;;20.00;99.90;;;;;;4242881;27;20217;-74
2022/06/01 03:25:36;;;;;;;3.03;1.50;;;20.10;99.90;;;;;;4243496;27;20213;-74
2022/06/01 03:27:38;;;;;;;2.42;1.85;;;20.00;99.90;;;;;;4241961;27;20209;-74
2022/06/01 03:29:40;;;;;;;2.50;1.42;;;20.10;99.90;;;;;;4242177;27;20282;-74
2022/06/01 03:31:44;;;;;;;2.30;1.80;;;20.10;99.90;;;;;;4243342;27;20213;-74
2022/06/01 03:33:48;;;;;;;2.67;1.83;;;20.00;99.90;;;;;;4243185;27;20278;-74
2022/06/01 03:35:50;;;;;;;2.42;1.80;;;20.10;99.90;;;;;;4242140;27;20225;-75
2022/06/01 03:37:53;;;;;;;2.05;1.45;;;20.10;99.90;;;;;;4243221;27;20575;-74
2022/06/01 03:39:55;;;;;;;3.05;1.35;;;20.10;99.90;;;;;;4242610;27;20277;-74
2022/06/01 03:41:59;;;;;;;3.40;1.60;;;20.00;99.90;;;;;;4241361;27;20761;-75
2022/06/01 03:46:22;;;;;;;1.80;1.30;;;20.10;99.90;;;;;;4242146;27;20204;-75
2022/06/01 03:48:27;;;;;;;2.30;1.50;;;20.10;99.90;;;;;;4242912;27;20213;-74
2022/06/01 03:50:31;;;;;;;1.90;1.45;;;20.00;99.90;;;;;;4242932;27;20213;-74
2022/06/01 03:52:34;;;;;;;2.13;1.67;;;20.00;99.80;;;;;;4241721;27;20603;-74
2022/06/01 03:54:36;;;;;;;2.30;1.60;;;20.00;99.90;;;;;;4242611;27;20820;-74
2022/06/01 03:56:39;;;;;;;2.40;1.70;;;20.00;99.80;;;;;;4242727;27;20270;-74
2022/06/01 03:58:41;;;;;;;2.90;1.50;;;20.00;99.90;;;;;;4241206;27;20228;-74
2022/06/01 04:00:45;;;;;;;3.10;1.70;;;20.00;99.90;;;;;;4242250;27;20285;-74
2022/06/01 04:02:47;;;;;;;2.15;1.33;;;20.00;99.90;;;;;;4241305;27;20638;-74
2022/06/01 04:04:50;;;;;;;1.80;1.52;;;20.00;99.80;;;;;;4242391;27;20213;-74
2022/06/01 04:06:53;;;;;;;1.58;1.27;;;20.00;99.70;;;;;;4240290;27;20241;-74
2022/06/01 04:08:55;;;;;;;2.10;1.48;;;20.00;99.80;;;;;;4240276;27;20213;-74
2022/06/01 04:10:58;;;;;;;1.90;1.70;;;20.00;99.80;;;;;;4242424;27;20619;-74
2022/06/01 04:13:00;;;;;;;2.55;1.50;;;20.00;99.80;;;;;;4241093;27;20221;-74
2022/06/01 04:15:02;;;;;;;1.83;1.50;;;20.00;99.70;;;;;;4241545;27;20239;-74
2022/06/01 04:17:05;;;;;;;1.67;1.50;;;20.00;99.80;;;;;;4241927;27;20217;-74
2022/06/01 04:19:07;;;;;;;1.90;1.70;;;20.00;99.80;;;;;;4240570;27;20328;-74
2022/06/01 04:21:10;;;;;;;3.30;1.88;;;20.00;99.90;;;;;;4240828;27;20613;-74
2022/06/01 04:23:14;;;;;;;2.85;1.88;;;19.90;99.50;;;;;;4236195;27;20266;-74
2022/06/01 04:25:19;;;;;;;6.32;2.53;;;19.90;98.80;;;;;;4240831;27;20212;-74
2022/06/01 04:27:21;;;;;;;3.78;2.20;;;19.90;98.40;;;;;;4239929;27;20261;-74
2022/06/01 04:29:24;;;;;;;6.15;2.20;;;19.90;98.30;;;;;;4236415;27;20221;-74
2022/06/01 04:31:27;;;;;;;3.38;2.13;;;19.80;98.30;;;;;;4237909;27;20225;-74
2022/06/01 04:33:29;;;;;;;4.85;1.92;;;19.70;98.10;;;;;;4241241;27;20254;-74
2022/06/01 04:35:32;;;;;;;5.30;2.10;;;19.70;98.20;;;;;;4240452;27;20216;-74
2022/06/01 04:37:34;;;;;;;3.08;1.98;;;19.70;98.70;;;;;;4236207;27;20221;-74
2022/06/01 04:39:38;;;;;;;3.33;1.65;;;19.70;99.10;;;;;;4240300;27;20213;-74
2022/06/01 04:41:40;;;;;;;4.00;1.90;;;19.70;99.40;;;;;;4241319;27;20265;-74
2022/06/01 04:43:43;;;;;;;3.58;1.50;;;19.70;99.60;;;;;;4239017;27;20270;-74
2022/06/01 04:45:45;;;;;;;4.43;1.60;;;19.70;99.50;;;;;;4240147;27;20266;-74
2022/06/01 04:47:47;;;;;;;4.57;1.75;;;19.80;99.60;;;;;;4240837;27;20213;-74
2022/06/01 04:49:49;;;;;;;3.83;1.70;;;19.80;99.30;;;;;;4240683;27;20285;-74
2022/06/01 04:51:52;;;;;;;1.80;1.50;;;19.80;99.30;;;;;;4241288;27;20221;-74
2022/06/01 04:53:54;;;;;;;2.67;1.45;;;19.80;99.40;;;;;;4239129;27;20213;-74
2022/06/01 04:55:58;;;;;;;2.70;1.65;;;19.80;99.50;;;;;;4241491;27;20217;-74
2022/06/01 04:58:00;;;;;;;4.20;1.58;;;19.80;99.20;;;;;;4240669;27;20233;-74
2022/06/01 05:00:02;;;;;;;3.63;1.70;;;19.90;99.10;;;;;;4239955;27;20289;-74
2022/06/01 05:02:06;;;;;;;5.60;2.03;;;19.90;99.10;;;;;;4240769;27;20229;-74
2022/06/01 05:04:08;;;;;;;2.97;1.90;;;19.90;99.40;;;;;;4241381;27;20220;-74
2022/06/01 05:06:10;;;;;;;1.92;1.48;;;19.90;99.20;;;;;;4240808;27;20282;-74
2022/06/01 05:08:15;;;;;;;3.22;1.63;;;20.00;99.20;;;;;;4241176;27;20600;-74
2022/06/01 05:10:17;;;;;;;2.42;1.48;;;20.00;99.20;;;;;;4239524;27;20224;-74
2022/06/01 05:12:21;;;;;;;2.08;1.70;;;20.00;99.00;;;;;;4240154;27;20220;-74
2022/06/01 05:14:23;;;;;;;2.60;1.45;;;20.00;99.10;;;;;;4240398;27;20250;-74
2022/06/01 05:16:26;;;;;;;1.85;1.40;;;20.00;99.00;;;;;;4239071;27;20217;-74
2022/06/01 05:18:29;;;;;;;2.28;1.52;;;20.00;99.00;;;;;;4241813;27;20273;-74
2022/06/01 05:20:34;;;;;;;2.42;1.42;;;20.00;99.20;;;;;;4243407;27;20212;-74
2022/06/01 05:22:36;;;;;;;2.67;1.40;;;20.10;99.10;;;;;;4243900;27;20209;-74
2022/06/01 05:24:38;;;;;;;3.42;1.45;;;20.00;99.10;;;;;;4243432;27;20289;-73
2022/06/01 05:26:41;;;;;;;3.75;1.70;;;20.10;99.40;;;;;;4244069;27;20635;-73
2022/06/01 05:28:44;;;;;;;3.15;1.65;;;20.10;99.30;;;;;;4228210;27;20213;-73
2022/06/01 05:30:47;;;;;;;2.83;1.80;;;20.10;99.30;;;;;;4244053;27;20610;-74
2022/06/01 05:32:49;;;;;;;4.03;2.40;;;20.00;98.90;;;;;;4243971;27;20225;-74
2022/06/01 05:34:51;;;;;;;7.93;2.58;;;20.00;98.80;;;;;;4243861;27;21103;-74
2022/06/01 05:36:54;;;;;;;5.72;2.28;;;20.00;98.90;;;;;;4244142;27;20208;-74
2022/06/01 05:38:56;;;;;;;7.22;2.50;;;19.90;98.90;;;;;;4244128;27;20217;-74
2022/06/01 05:40:59;;;;;;;5.78;2.67;;;19.80;99.00;;;;;;4243877;27;20439;-74
2022/06/01 05:43:07;;;;;;;6.00;2.13;;;19.80;99.10;;;;;;4242933;27;20221;-74
2022/06/01 05:45:12;;;;;;;7.15;2.25;;;19.80;99.20;;;;;;4242933;27;20221;-73
2022/06/01 05:47:14;;;;;;;8.77;2.42;;;19.70;99.20;;;;;;4244031;27;20234;-74
2022/06/01 05:49:16;;;;;;;6.45;2.53;;;19.70;99.30;;;;;;4244063;27;20244;-74
2022/06/01 05:51:19;;;;;;;6.20;2.55;;;19.70;99.30;;;;;;4243345;27;20282;-74
2022/06/01 05:53:23;;;;;;;6.10;2.50;;;19.70;99.50;;;;;;4244437;27;20221;-74
2022/06/01 05:55:25;;;;;;;8.23;2.45;;;19.70;99.50;;;;;;4243434;27;20614;-74
2022/06/01 05:57:28;;;;;;;6.22;2.20;;;19.60;99.50;;;;;;4243783;27;20217;-74
2022/06/01 05:59:30;;;;;;;5.35;2.08;;;19.60;99.70;;;;;;4244017;27;21628;-74
2022/06/01 06:01:34;;;;;;;4.20;1.70;;;19.60;99.70;;;;;;4242358;27;20786;-74
2022/06/01 06:03:36;;;;;;;3.85;1.60;;;19.60;99.70;;;;;;4242075;27;20257;-74
2022/06/01 06:07:59;;;;;;;3.70;1.75;;;19.70;99.90;;;;;;4242383;27;20201;-74
2022/06/01 06:10:01;;;;;;;4.70;1.80;;;19.80;99.90;;;;;;4242964;27;20217;-74
2022/06/01 06:12:04;;;;;;;4.75;1.77;;;19.80;99.90;;;;;;4243467;27;20327;-74
2022/06/01 06:14:07;;;;;;;5.35;1.90;;;19.90;99.90;;;;;;4243018;27;20262;-74
2022/06/01 06:16:10;;;;;;;5.28;1.80;;;19.80;99.90;;;;;;4243396;27;20270;-74
2022/06/01 06:18:15;;;;;;;4.00;1.77;;;19.80;99.90;;;;;;4242991;27;20213;-74
2022/06/01 06:20:18;;;;;;;3.58;1.80;;;19.80;99.90;;;;;;4242566;27;20244;-74
2022/06/01 06:22:22;;;;;;;3.40;1.85;;;19.90;99.90;;;;;;4243255;27;20656;-74
2022/06/01 06:24:25;;;;;;;3.90;1.60;;;19.90;99.90;;;;;;4241203;27;20212;-74
2022/06/01 06:26:27;;;;;;;4.03;1.50;;;19.90;99.90;;;;;;4242612;27;20665;-73
2022/06/01 06:28:29;;;;;;;2.78;1.77;;;19.90;99.90;;;;;;4243051;27;20441;-74
2022/06/01 06:30:32;;;;;;;3.53;1.50;;;19.90;99.90;;;;;;4243470;27;20265;-74
2022/06/01 06:32:34;;;;;;;3.22;1.50;;;19.90;99.90;;;;;;4242961;27;20288;-74
2022/06/01 06:34:38;;;;;;;4.10;1.92;;;19.90;99.80;;;;;;4243346;27;20278;-74
2022/06/01 06:36:40;;;;;;;4.22;1.75;;;20.00;99.90;;;;;;4241049;27;20217;-74
2022/06/01 06:38:43;;;;;;;5.03;1.98;;;20.00;99.90;;;;;;4242881;27;20221;-74
2022/06/01 06:40:45;;;;;;;2.97;1.70;;;20.00;99.70;;;;;;4242704;27;20205;-73
2022/06/01 06:42:48;;;;;;;4.68;1.70;;;20.10;99.90;;;;;;4240534;27;20605;-74
2022/06/01 06:44:50;;;;;;;4.25;1.90;;;20.10;99.90;;;;;;4243162;27;20213;-74
2022/06/01 06:46:52;;;;;;;3.55;1.73;;;20.10;99.90;;;;;;4242323;27;20213;-73
2022/06/01 06:48:55;;;;;;;2.72;1.50;;;20.10;99.90;;;;;;4242373;27;20270;-73
2022/06/01 06:50:59;;;;;;;5.13;1.67;;;20.10;99.90;;;;;;4242235;27;20217;-74
2022/06/01 06:53:01;;;;;;;4.43;1.60;;;20.10;99.90;;;;;;4239221;27;20977;-73
2022/06/01 06:55:04;;;;;;;6.43;1.75;;;20.10;99.50;;;;;;4242938;27;20293;-73
2022/06/01 06:57:07;;;;;;;8.77;2.08;;;20.10;99.50;;;;;;4242945;27;20251;-74
2022/06/01 06:59:12;;;;;;;4.30;1.80;;;20.00;99.60;;;;;;4242259;27;20245;-73
2022/06/01 07:01:14;;;;;;;5.68;1.95;;;19.90;99.80;;;;;;4244827;27;20269;-74
2022/06/01 07:03:17;;;;;;;3.22;2.10;;;19.90;99.90;;;;;;4241950;27;20257;-74
2022/06/01 07:07:37;;;;;;;4.47;1.80;;;19.90;99.90;;;;;;4241621;27;20213;-73
2022/06/01 07:09:40;;;;;;;11.65;2.60;;;20.00;99.90;;;;;;4240575;27;20205;-73
2022/06/01 07:11:42;;;;;;;9.82;2.17;;;19.90;99.90;;;;;;4239050;27;20213;-73
2022/06/01 07:13:44;;;;;;;9.60;3.03;;;19.90;99.90;;;;;;4234106;27;20217;-74
2022/06/01 07:15:47;;;;;;;4.82;2.45;;;20.00;99.90;;;;;;4232740;27;20230;-74
2022/06/01 07:17:50;;;;;;;9.73;2.97;;;20.00;99.90;;;;;;4239021;27;20255;-74
2022/06/01 07:19:56;;;;;;;5.60;2.90;;;20.10;99.90;;;;;;4240056;27;20699;-74
2022/06/01 07:21:58;;;;;;;11.57;2.95;;;20.00;99.90;;;;;;4239060;27;20214;-79
2022/06/01 07:24:02;;;;;;;8.30;2.70;;;20.10;99.90;;;;;;4234560;27;20268;-75
2022/06/01 07:26:05;;;;;;;5.20;2.42;;;20.10;99.90;;;;;;4237724;27;20206;-75
2022/06/01 07:28:09;;;;;;;6.65;2.80;;;20.10;99.90;;;;;;4238789;27;20285;-75
2022/06/01 07:30:13;;;;;;;5.93;2.90;;;20.20;99.90;;;;;;4238075;27;20213;-77
2022/06/01 07:32:15;;;;;;;7.63;2.60;;;20.20;99.90;;;;;;4242823;27;20270;-75
2022/06/01 07:34:18;;;;;;;8.73;2.70;;;20.10;99.90;;;;;;4239540;27;20289;-76
2022/06/01 07:36:21;;;;;;;10.25;2.45;;;20.20;99.90;;;;;;4235124;27;20217;-74
2022/06/01 07:43:07;;;;;;;4.88;2.05;;;20.20;99.90;;;;;;4239373;27;20205;-75
2022/06/01 07:45:09;;;;;;;7.13;2.20;;;20.40;99.90;;;;;;4233990;27;20282;-74
2022/06/01 07:47:12;;;;;;;5.47;2.15;;;20.40;99.90;;;;;;4238437;27;20225;-74
2022/06/01 07:49:16;;;;;;;5.07;1.45;;;20.40;99.90;;;;;;4240526;27;20213;-74
2022/06/01 07:51:18;;;;;;;5.60;1.98;;;20.50;99.90;;;;;;4241096;27;20213;-74
2022/06/01 07:53:20;;;;;;;5.40;2.03;;;20.50;99.90;;;;;;4240288;27;20216;-75
2022/06/01 07:55:23;;;;;;;6.72;1.85;;;20.50;99.90;;;;;;4236977;27;20221;-78
2022/06/01 07:57:27;;;;;;;5.97;1.77;;;20.60;99.90;;;;;;4239121;27;20687;-77
2022/06/01 07:59:32;;;;;;;4.30;1.70;;;20.60;99.90;;;;;;4242232;27;20217;-75
2022/06/01 08:01:34;;;;;;;7.45;2.00;;;20.60;99.90;;;;;;4238964;27;20254;-75
2022/06/01 08:03:37;;;;;;;2.30;1.27;;;20.60;99.90;;;;;;4237697;27;20266;-74
2022/06/01 08:05:39;;;;;;;5.70;1.85;;;20.70;99.90;;;;;;4239154;27;20217;-75
2022/06/01 08:07:42;;;;;;;5.40;2.03;;;20.80;99.90;;;;;;4233216;27;20217;-75
2022/06/01 08:09:44;;;;;;;4.45;1.80;;;20.80;99.90;;;;;;4240413;27;20617;-74
2022/06/01 08:14:08;;;;;;;4.88;1.48;;;20.80;99.90;;;;;;4239433;27;20197;-73
2022/06/01 08:16:10;;;;;;;3.95;1.70;;;20.80;99.90;;;;;;4235515;27;20281;-73
2022/06/01 08:18:15;;;;;;;6.80;2.10;;;20.80;99.90;;;;;;4237761;27;20677;-72
2022/06/01 08:20:18;;;;;;;4.97;1.83;;;20.90;99.90;;;;;;4239421;27;20233;-71
2022/06/01 08:22:20;;;;;;;4.05;1.65;;;20.90;99.90;;;;;;4240999;27;20661;-74
2022/06/01 08:24:22;;;;;;;3.67;1.60;;;20.90;99.90;;;;;;4240028;27;20270;-75
2022/06/01 08:26:25;;;;;;;7.18;1.90;;;20.90;99.90;;;;;;4240133;27;20266;-73
2022/06/01 08:28:27;;;;;;;5.07;1.70;;;20.90;99.90;;;;;;4239170;27;20217;-75
2022/06/01 08:30:33;;;;;;;6.63;1.92;;;21.00;99.90;;;;;;4238201;27;21092;-74
2022/06/01 08:32:36;;;;;;;6.53;1.92;;;21.00;99.90;;;;;;4240903;27;20278;-73
2022/06/01 08:34:38;;;;;;;10.30;2.85;;;21.00;99.90;;;;;;4240115;27;20213;-74
2022/06/01 08:36:40;;;;;;;11.00;2.85;;;20.40;99.90;;;;;;4242814;27;20256;-75
2022/06/01 08:38:43;;;;;;;6.15;2.00;;;20.20;99.90;;;;;;4239131;27;20691;-74
2022/06/01 08:40:53;;;;;;;5.88;2.33;;;20.40;99.90;;;;;;4240036;27;20270;-72
2022/06/01 08:43:02;;;;;;;8.35;2.10;;;20.50;99.90;;;;;;4241107;27;20254;-73
2022/06/01 08:45:07;;;;;;;10.30;2.30;;;20.60;99.90;;;;;;4241389;27;20216;-73
2022/06/01 08:47:16;;;;;;;6.68;1.90;;;20.80;99.90;;;;;;4241555;27;20239;-73
2022/06/01 08:49:25;;;;;;;8.32;1.92;;;20.80;99.90;;;;;;4239745;27;20242;-73
2022/06/01 08:51:29;;;;;;;7.43;2.25;;;20.90;99.90;;;;;;4236774;27;20209;-73
2022/06/01 08:53:31;;;;;;;12.52;2.47;;;21.00;99.90;;;;;;4237783;27;21022;-73
2022/06/01 08:55:47;;;;;;;14.70;2.30;;;21.00;99.90;;;;;;4236688;27;20258;-73
2022/06/01 08:57:57;;;;;;;11.98;2.38;;;21.10;99.90;;;;;;4235714;27;20254;-73
2022/06/01 09:00:06;;;;;;;9.27;2.38;;;20.90;99.90;;;;;;4237934;27;20217;-72
2022/06/01 09:02:34;;;;;;;7.82;2.25;;;21.00;99.90;;;;;;4238461;27;20272;-72
2022/06/01 09:04:41;;;;;;;13.77;1.98;;;21.00;99.90;;;;;;4234402;27;20206;-73
2022/06/01 09:06:49;;;;;;;6.95;1.90;;;21.10;99.90;;;;;;4237865;27;20280;-74
2022/06/01 09:08:56;;;;;;;5.82;1.83;;;21.10;99.90;;;;;;4237028;27;20212;-73
2022/06/01 09:11:07;;;;;;;4.38;1.67;;;21.20;99.90;;;;;;4238028;27;20209;-73
2022/06/01 09:13:14;;;;;;;8.35;1.80;;;21.20;99.90;;;;;;4237908;27;20216;-73
2022/06/01 09:15:21;;;;;;;6.05;2.10;;;21.30;99.90;;;;;;4238315;27;20221;-76
2022/06/01 09:17:25;;;;;;;5.65;1.95;;;21.20;99.90;;;;;;4239355;27;20621;-75
2022/06/01 09:22:37;;;;;;;4.13;1.52;;;21.30;99.90;;;;;;4239015;27;20963;-74
2022/06/01 09:24:17;;;;;;;6.07;1.75;;;21.40;99.90;;;;;;4239644;27;20197;-74
2022/06/01 09:26:24;;;;;;;6.47;1.77;;;21.40;99.90;;;;;;4235432;27;20630;-74
2022/06/01 09:28:30;;;;;;;3.17;1.50;;;21.40;99.90;;;;;;4233431;27;20654;-73
2022/06/01 09:30:36;;;;;;;5.45;1.55;;;21.40;99.90;;;;;;4235830;27;20629;-73
2022/06/01 09:32:41;;;;;;;3.10;1.70;;;21.40;99.90;;;;;;4239069;27;20274;-73
2022/06/01 09:34:48;;;;;;;5.18;1.70;;;21.40;99.90;;;;;;4237242;27;20217;-72
2022/06/01 09:37:13;;;;;;;5.90;1.60;;;21.40;99.90;;;;;;4234360;27;20257;-72
2022/06/01 09:39:19;;;;;;;4.32;1.58;;;21.40;99.90;;;;;;4238459;27;20213;-75
2022/06/01 09:41:27;;;;;;;5.43;1.70;;;21.40;99.90;;;;;;4237221;27;20237;-75
2022/06/01 09:43:29;;;;;;;5.15;1.70;;;21.50;99.90;;;;;;4237611;27;20209;-75
2022/06/01 09:45:48;;;;;;;4.07;1.52;;;21.50;99.90;;;;;;4233812;27;20251;-75
2022/06/01 09:47:54;;;;;;;4.93;1.88;;;21.50;99.90;;;;;;4239410;27;20209;-73
2022/06/01 09:50:00;;;;;;;5.90;1.83;;;21.60;99.90;;;;;;4237036;27;20221;-75
2022/06/01 09:52:10;;;;;;;3.97;1.80;;;21.60;99.90;;;;;;4233343;27;20217;-76
2022/06/01 09:54:24;;;;;;;2.28;1.27;;;21.50;99.90;;;;;;4238584;27;20269;-76
2022/06/01 09:56:33;;;;;;;4.22;1.48;;;21.60;99.90;;;;;;4237939;27;20213;-76
2022/06/01 10:08:08;;;;;;;3.95;1.80;;;21.60;99.90;;;;;;4238088;27;20209;-75
2022/06/01 10:10:23;;;;;;;4.15;1.38;;;21.60;99.90;;;;;;4237149;27;20206;-73
2022/06/01 10:12:33;;;;;;;4.55;1.70;;;21.60;99.90;;;;;;4243045;27;20209;-73
2022/06/01 10:14:49;;;;;;;3.15;1.55;;;21.60;99.90;;;;;;4239586;27;20265;-74
2022/06/01 10:17:14;;;;;;;7.45;1.88;;;21.70;99.90;;;;;;4236830;27;20257;-75
2022/06/01 10:19:23;;;;;;;6.40;1.60;;;21.60;99.90;;;;;;4241493;27;20209;-74
2022/06/01 10:21:30;;;;;;;4.60;1.55;;;21.60;99.90;;;;;;4242872;27;20317;-75
2022/06/01 10:23:40;;;;;;;4.00;1.55;;;21.60;99.90;;;;;;4234219;27;20272;-72
2022/06/01 10:25:51;;;;;;;5.10;1.60;;;21.60;99.90;;;;;;4238173;27;20245;-74
2022/06/01 10:27:58;;;;;;;3.15;1.40;;;21.60;99.90;;;;;;4239837;27;20214;-74
2022/06/01 10:30:09;;;;;;;4.40;1.55;;;21.60;99.90;;;;;;4236439;27;20270;-74
2022/06/01 10:32:19;;;;;;;3.67;1.73;;;21.60;99.90;;;;;;4241654;27;20278;-73
2022/06/01 10:34:27;;;;;;;3.13;1.35;;;21.60;99.90;;;;;;4237764;27;20220;-75
2022/06/01 10:36:41;;;;;;;4.43;1.60;;;21.60;99.90;;;;;;4240450;27;20224;-75
2022/06/01 10:38:50;;;;;;;3.63;1.23;;;21.60;99.90;;;;;;4232048;27;20225;-75
2022/06/01 10:40:59;;;;;;;3.10;1.40;;;21.60;99.90;;;;;;4235349;27;20216;-75
2022/06/01 10:43:18;;;;;;;3.90;1.40;;;21.60;99.90;;;;;;4234058;27;20645;-75
2022/06/01 10:45:22;;;;;;;4.13;1.35;;;21.60;99.90;;;;;;4223339;27;20259;-75
2022/06/01 10:47:33;;;;;;;4.13;1.40;;;21.50;99.90;;;;;;4242465;27;20209;-76
2022/06/01 10:49:46;;;;;;;4.47;1.30;;;21.50;99.90;;;;;;4240478;27;20209;-78
2022/06/01 10:51:57;;;;;;;4.13;1.30;;;21.40;99.90;;;;;;4235912;27;20221;-78
2022/06/01 10:54:06;;;;;;;3.53;1.63;;;21.30;99.90;;;;;;4239524;27;20216;-78
2022/06/01 10:56:13;;;;;;;4.30;1.67;;;21.40;99.90;;;;;;4236241;27;20213;-77
2022/06/01 10:58:21;;;;;;;4.80;1.70;;;21.50;99.90;;;;;;4238534;27;20250;-78
2022/06/01 11:01:29;;;;;;;3.50;1.50;;;21.60;99.90;;;;;;4241333;27;20217;-80
2022/06/01 11:04:02;;;;;;;3.88;1.38;;;21.60;99.90;;;;;;4232009;27;20209;-76
2022/06/01 11:06:16;;;;;;;4.45;1.40;;;21.60;99.90;;;;;;4240399;27;20294;-77
2022/06/01 11:08:34;;;;;;;5.18;1.63;;;21.60;99.90;;;;;;4237835;27;20271;-79
2022/06/01 11:10:48;;;;;;;2.30;1.23;;;21.70;99.90;;;;;;4233852;27;20225;-80
2022/06/01 11:13:05;;;;;;;4.82;1.65;;;21.60;99.90;;;;;;4235129;27;20261;-80
2022/06/01 11:15:15;;;;;;;3.20;1.20;;;21.60;99.90;;;;;;4236723;27;20221;-80
2022/06/01 11:17:25;;;;;;;6.60;1.35;;;21.60;99.90;;;;;;4238808;27;20217;-78
2022/06/01 11:19:42;;;;;;;6.43;1.48;;;21.80;99.90;;;;;;4237449;27;20218;-76